Time;durP1;ratioP1;P1;durP2;ratioP2;P2;SDS_P1;SDS_P2;PMS_P1;PMS_P2;Temp;Humidity;BMP_temperature;BMP_pressure;BME280_temperature;BME280_humidity;BME280_pressure;Samples;Min_cycle;Max_cycle;Signal;HPM_P1;HPM_P2
2022/05/23 00:00:58;;;;;;;7.20;2.85;;;;;;;13.36;77.22;99031.56;10413556;28;20124;-73
2022/05/23 00:05:59;;;;;;;6.53;2.65;;;;;;;13.29;77.17;99049.47;10414397;28;20120;-73
2022/05/23 00:11:00;;;;;;;7.38;3.10;;;;;;;12.95;78.05;99008.88;10412234;28;20084;-73
2022/05/23 00:16:03;;;;;;;4.78;2.75;;;;;;;11.94;78.47;98852.59;10452006;28;20111;-73
2022/05/23 00:21:04;;;;;;;5.43;3.05;;;;;;;12.84;78.51;99006.91;10414045;28;20072;-73
2022/05/23 00:26:05;;;;;;;11.98;3.75;;;;;;;12.78;78.77;99016.59;10413337;28;20393;-73
2022/05/23 00:31:06;;;;;;;6.80;3.38;;;;;;;11.81;79.04;98864.88;10413041;28;20508;-73
2022/05/23 00:36:07;;;;;;;10.13;3.83;;;;;;;12.85;78.67;99021.88;10412893;28;20132;-73
2022/05/23 00:46:59;;;;;;;6.82;3.30;;;;;;;12.75;81.06;99007.16;10412465;28;20044;-73
2022/05/23 00:52:05;;;;;;;11.85;3.90;;;;;;;12.72;80.17;99010.25;10380795;28;20038;-73
2022/05/23 00:57:09;;;;;;;10.82;3.20;;;;;;;11.58;79.62;98828.19;10371867;28;20046;-73
2022/05/23 01:02:12;;;;;;;17.70;3.70;;;;;;;12.61;79.42;99002.94;10354395;28;20045;-74
2022/05/23 01:07:13;;;;;;;7.47;2.78;;;;;;;12.38;79.58;98974.16;10371234;28;20038;-73
2022/05/23 01:12:14;;;;;;;8.85;3.28;;;;;;;12.27;80.18;98965.03;10371725;28;20129;-73
2022/05/23 01:17:16;;;;;;;28.65;4.90;;;;;;;11.47;79.95;98841.31;10371569;28;20429;-73
2022/05/23 01:22:34;;;;;;;15.38;3.55;;;;;;;12.51;81.60;99021.25;10369562;28;20053;-73
2022/05/23 01:27:37;;;;;;;5.32;2.95;;;;;;;11.49;80.38;98856.03;10370938;28;20412;-73
2022/05/23 01:32:38;;;;;;;4.80;2.95;;;;;;;12.51;81.18;99026.56;10371345;28;20052;-73
2022/05/23 01:37:39;;;;;;;7.88;3.03;;;;;;;12.41;81.24;99026.19;10369694;28;20120;-73
2022/05/23 01:42:40;;;;;;;7.13;2.97;;;;;;;12.50;80.83;99048.88;10371044;28;20050;-73
2022/05/23 01:47:41;;;;;;;4.68;2.80;;;;;;;11.29;81.16;98868.56;10377357;28;20124;-74
2022/05/23 01:52:42;;;;;;;4.18;2.58;;;;;;;12.53;81.29;99075.09;10377659;28;20121;-74
2022/05/23 01:57:43;;;;;;;4.97;2.78;;;;;;;12.36;81.10;99063.31;10377386;28;20128;-74
2022/05/23 02:02:47;;;;;;;4.75;2.88;;;;;;;12.32;81.30;99046.91;10378125;28;20046;-73
2022/05/23 02:07:48;;;;;;;4.70;2.67;;;;;;;11.93;81.22;98974.16;10377300;28;20042;-72
2022/05/23 02:12:49;;;;;;;7.15;2.63;;;;;;;12.77;80.79;99084.22;10376817;28;20037;-73
2022/05/23 02:17:50;;;;;;;5.20;2.85;;;;;;;12.76;81.04;99075.41;10376237;28;20124;-73
2022/05/23 02:22:50;;;;;;;17.67;2.92;;;;;;;13.10;80.47;99099.19;10385050;28;20140;-73
2022/05/23 02:27:52;;;;;;;5.82;2.40;;;;;;;12.58;80.15;98976.72;10415524;28;20052;-73
2022/05/23 02:32:53;;;;;;;8.60;2.30;;;;;;;12.71;79.18;98962.50;10428804;28;20045;-73
2022/05/23 02:37:54;;;;;;;3.05;2.08;;;;;;;13.62;79.08;99122.06;10428938;28;20063;-73
2022/05/23 02:42:54;;;;;;;12.05;2.85;;;;;;;13.53;79.12;99125.22;10416881;28;20069;-73
2022/05/23 02:47:55;;;;;;;8.30;2.95;;;;;;;12.51;79.16;98968.78;10411624;28;20065;-73
2022/05/23 02:52:56;;;;;;;5.45;2.10;;;;;;;13.63;79.38;99145.03;10457695;28;20408;-73
2022/05/23 02:57:57;;;;;;;6.10;2.35;;;;;;;13.81;78.93;99138.13;10457151;28;20136;-73
2022/05/23 03:03:03;;;;;;;4.50;2.25;;;;;;;14.27;77.45;99144.88;10457035;28;20119;-73
2022/05/23 03:08:05;;;;;;;4.30;2.30;;;;;;;13.77;75.75;98984.81;10457333;28;20044;-75
2022/05/23 03:13:06;;;;;;;3.58;2.00;;;;;;;14.81;75.72;99144.09;10450295;28;20495;-74
2022/05/23 03:18:08;;;;;;;3.97;2.03;;;;;;;14.93;75.43;99136.13;10379925;28;20061;-74
2022/05/23 03:28:28;;;;;;;17.98;3.35;;;;;;;15.05;75.14;99144.22;10415452;28;20052;-73
2022/05/23 03:33:29;;;;;;;7.65;2.55;;;;;;;15.48;73.97;99143.97;10415407;28;20034;-74
2022/05/23 03:38:29;;;;;;;4.55;2.20;;;;;;;15.86;72.86;99140.13;10412165;28;20484;-76
2022/05/23 03:43:30;;;;;;;5.93;2.38;;;;;;;15.73;72.89;99121.59;10402619;28;20041;-75
2022/05/23 03:48:31;;;;;;;4.78;2.50;;;;;;;15.63;72.60;99099.91;10415419;28;20049;-74
2022/05/23 03:53:33;;;;;;;3.28;2.03;;;;;;;16.09;72.35;99143.84;10408335;28;20049;-73
2022/05/23 03:58:34;;;;;;;5.13;2.00;;;;;;;16.38;70.62;99134.84;10402328;28;20566;-73
2022/05/23 04:03:35;;;;;;;19.35;3.72;;;;;;;16.21;70.47;99125.91;10395406;28;20051;-72
2022/05/23 04:08:37;;;;;;;21.67;3.22;;;;;;;16.39;70.94;99131.16;10424322;28;20067;-72
2022/05/23 04:13:37;;;;;;;6.25;2.13;;;;;;;16.05;68.30;98882.88;10427025;28;20063;-77
2022/05/23 04:18:38;;;;;;;5.20;2.42;;;;;;;18.36;66.13;99119.00;10408204;28;20059;-76
2022/05/23 04:23:39;;;;;;;6.53;1.88;;;;;;;18.48;62.63;98996.00;10409202;28;20072;-75
2022/05/23 04:28:40;;;;;;;32.63;3.10;;;;;;;19.77;62.05;99125.38;10412192;28;20075;-76
2022/05/23 04:39:05;;;;;;;3.65;1.83;;;;;;;20.43;59.93;99123.13;10374927;28;20457;-76
2022/05/23 04:44:07;;;;;;;3.33;1.95;;;;;;;20.37;57.45;99018.16;10412617;28;20044;-75
2022/05/23 04:54:27;;;;;;;4.68;1.65;;;;;;;20.41;57.85;99127.94;10412555;28;20038;-77
2022/05/23 04:59:27;;;;;;;5.28;1.90;;;;;;;20.37;57.64;99124.16;10412281;28;20123;-76
2022/05/23 05:04:30;;;;;;;2.80;1.40;;;;;;;20.21;56.83;99071.22;10411967;28;20132;-75
2022/05/23 05:09:31;;;;;;;6.03;1.85;;;;;;;20.91;55.89;99104.13;10412092;28;20041;-74
2022/05/23 05:14:34;;;;;;;3.70;1.63;;;;;;;21.60;55.07;99113.75;10411972;28;20042;-77
2022/05/23 05:19:35;;;;;;;5.55;1.65;;;;;;;21.96;53.91;99097.50;10397700;28;20501;-76
2022/05/23 05:24:36;;;;;;;5.68;1.90;;;;;;;22.44;52.84;99109.56;10419578;28;20052;-76
2022/05/23 05:29:37;;;;;;;4.10;1.45;;;;;;;22.56;52.83;99104.63;10418975;28;20064;-77
2022/05/23 05:35:02;;;;;;;4.88;1.45;;;;;;;22.59;52.59;99116.81;10418884;28;20050;-76
2022/05/23 05:40:04;;;;;;;5.40;1.80;;;;;;;22.26;51.80;99100.16;10419649;28;20033;-74
2022/05/23 05:45:15;;;;;;;5.38;1.42;;;;;;;22.03;52.35;99108.81;10400226;28;20037;-72
2022/05/23 05:50:25;;;;;;;1.85;1.20;;;;;;;21.13;51.07;98979.72;10418624;28;20044;-76
2022/05/23 05:55:27;;;;;;;3.38;1.15;;;;;;;22.27;49.88;99099.06;10423583;28;20497;-74
2022/05/23 06:00:27;;;;;;;4.95;1.35;;;;;;;22.31;48.46;99067.66;10458217;28;20048;-79
2022/05/23 06:05:28;;;;;;;2.25;1.33;;;;;;;22.62;47.52;99102.72;10459937;28;20041;-76
2022/05/23 06:15:49;;;;;;;3.03;1.20;;;;;;;21.78;47.03;98985.34;10458862;28;20059;-74
2022/05/23 06:20:52;;;;;;;7.05;1.40;;;;;;;22.71;46.71;99106.47;10459472;28;20067;-75
2022/05/23 06:25:53;;;;;;;2.90;1.20;;;;;;;23.13;47.01;99091.63;10458922;28;20048;-77
2022/05/23 06:30:56;;;;;;;2.13;1.20;;;;;;;23.36;45.57;99095.53;10457336;28;20110;-74
2022/05/23 06:35:57;;;;;;;2.13;1.30;;;;;;;22.94;45.02;99025.63;10458683;28;20040;-76
2022/05/23 06:40:58;;;;;;;4.13;1.33;;;;;;;23.32;44.96;99096.38;10459008;28;20298;-76
2022/05/23 06:45:59;;;;;;;2.75;1.30;;;;;;;23.30;45.00;99049.78;10457969;28;20045;-75
2022/05/23 06:51:00;;;;;;;2.47;1.10;;;;;;;23.57;45.15;99079.94;10457470;28;20036;-74
2022/05/23 06:56:01;;;;;;;3.65;1.67;;;;;;;23.56;45.06;99044.97;10457222;28;20053;-75
2022/05/23 07:01:03;;;;;;;3.60;1.30;;;;;;;24.10;44.63;99090.81;10457172;28;20076;-78
2022/05/23 07:16:43;;;;;;;4.15;1.02;;;;;;;24.34;43.20;99079.16;10413165;28;20037;-73
2022/05/23 07:21:44;;;;;;;4.05;1.27;;;;;;;24.33;44.13;99053.13;10416122;28;20453;-77
2022/05/23 07:26:45;;;;;;;3.13;1.25;;;;;;;24.39;42.72;99054.69;10412968;28;20033;-74
2022/05/23 07:31:46;;;;;;;4.30;1.15;;;;;;;24.02;41.82;98947.69;10412089;28;20077;-78
2022/05/23 07:36:48;;;;;;;2.72;1.25;;;;;;;25.01;41.76;99068.28;10412422;28;20518;-75
2022/05/23 07:41:49;;;;;;;5.10;1.30;;;;;;;25.03;40.75;99045.13;10396477;28;20041;-77
2022/05/23 07:46:50;;;;;;;4.47;1.70;;;;;;;25.16;41.32;99059.09;10414028;28;20041;-73
2022/05/23 07:51:53;;;;;;;5.00;2.28;;;;;;;25.23;40.80;99040.50;10413705;28;20045;-74
2022/05/23 08:02:14;;;;;;;2.35;1.30;;;;;;;23.98;40.15;98930.38;10414088;28;20045;-74
2022/05/23 08:07:14;;;;;;;4.50;1.15;;;;;;;24.43;40.26;99047.59;10413607;28;20072;-75
2022/05/23 08:12:16;;;;;;;3.50;1.30;;;;;;;24.48;39.91;99052.97;10382498;28;20057;-76
2022/05/23 08:17:17;;;;;;;3.75;1.58;;;;;;;24.24;40.20;99060.28;10372927;28;20541;-78
2022/05/23 08:22:19;;;;;;;5.55;2.13;;;;;;;23.90;40.10;99039.50;10373162;28;20149;-80
2022/05/23 08:27:20;;;;;;;3.85;1.20;;;;;;;24.24;39.12;99044.81;10371995;28;20533;-80
2022/05/23 08:32:21;;;;;;;2.42;0.88;;;;;;;24.22;38.01;99052.44;10373286;28;20108;-78
2022/05/23 08:37:22;;;;;;;1.27;0.70;;;;;;;23.42;37.72;98937.22;10371821;28;20041;-77
2022/05/23 08:42:29;;;;;;;4.07;1.00;;;;;;;23.75;37.88;99026.09;10372362;28;20452;-80
2022/05/23 08:47:49;;;;;;;8.48;1.42;;;;;;;23.76;38.97;99041.28;10371787;28;20413;-73
2022/05/23 08:53:02;;;;;;;2.13;0.88;;;;;;;23.91;39.22;99041.94;10372515;28;20117;-75
2022/05/23 08:58:08;;;;;;;5.10;1.07;;;;;;;24.19;38.94;99057.63;10380518;28;20046;-75
2022/05/23 09:03:28;;;;;;;3.60;0.80;;;;;;;24.56;38.21;99065.91;10380042;28;20045;-75
2022/05/23 09:08:35;;;;;;;2.08;0.80;;;;;;;24.71;38.22;99042.31;10379352;28;20042;-77
2022/05/23 09:13:40;;;;;;;2.78;0.90;;;;;;;24.94;37.64;99074.06;10379368;28;20038;-74
2022/05/23 09:18:54;;;;;;;2.53;1.10;;;;;;;24.93;37.96;99083.31;10379308;28;20053;-75
2022/05/23 09:23:54;;;;;;;4.47;0.98;;;;;;;24.78;38.13;99067.22;10377873;28;20398;-75
2022/05/23 09:28:55;;;;;;;1.90;0.95;;;;;;;23.66;38.20;98942.66;10378521;28;20042;-74
2022/05/23 09:33:56;;;;;;;4.63;1.23;;;;;;;24.18;38.67;99039.75;10432994;28;20041;-74
2022/05/23 09:39:04;;;;;;;2.25;0.95;;;;;;;23.99;39.50;99016.09;10446079;28;20040;-75
2022/05/23 09:49:31;;;;;;;3.40;0.90;;;;;;;23.72;39.49;98992.22;10437852;28;20087;-77
2022/05/23 09:54:46;;;;;;;2.13;1.03;;;;;;;24.14;39.51;99036.78;10442892;28;20130;-73
2022/05/23 10:00:14;;;;;;;2.58;1.10;;;;;;;23.82;39.23;99035.50;10377491;28;20038;-78
2022/05/23 10:05:50;;;;;;;3.20;1.33;;;;;;;23.92;40.01;99032.69;10359472;28;20053;-74
2022/05/23 10:10:59;;;;;;;3.47;1.30;;;;;;;23.74;39.79;99046.19;10365851;28;20068;-73
2022/05/23 10:16:09;;;;;;;6.40;1.10;;;;;;;23.71;41.06;99038.63;10413849;28;20129;-75
2022/05/23 10:21:27;;;;;;;5.13;1.10;;;;;;;22.75;39.99;98882.81;10445194;28;20526;-74
2022/05/23 10:26:30;;;;;;;3.85;1.00;;;;;;;23.52;39.88;99044.72;10417282;28;20453;-73
2022/05/23 10:31:35;;;;;;;2.60;1.07;;;;;;;23.50;39.16;99024.41;10426747;28;20040;-73
2022/05/23 10:36:38;;;;;;;2.92;1.08;;;;;;;22.89;39.14;98882.19;10458784;28;20310;-72
2022/05/23 10:47:25;;;;;;;5.47;1.10;;;;;;;23.95;38.66;99014.22;10455145;28;20083;-79
2022/05/23 10:52:47;;;;;;;2.60;1.10;;;;;;;23.98;38.53;99025.31;10413350;28;20037;-75
2022/05/23 10:57:59;;;;;;;21.42;1.58;;;;;;;23.59;38.50;98958.44;10425120;28;20048;-75
2022/05/23 11:03:30;;;;;;;5.07;1.38;;;;;;;23.81;39.07;99011.38;10416438;28;20390;-76
2022/05/23 11:08:51;;;;;;;2.95;1.10;;;;;;;23.52;39.56;98990.53;10388398;28;20042;-79
2022/05/23 11:14:09;;;;;;;2.33;1.10;;;;;;;23.85;39.70;99001.59;10375687;28;20129;-75
2022/05/23 11:19:22;;;;;;;9.05;1.40;;;;;;;24.14;39.87;99012.34;10375154;28;20096;-74
2022/05/23 11:24:31;;;;;;;4.33;1.10;;;;;;;23.88;40.17;99006.44;10374819;28;20045;-74
2022/05/23 11:34:40;;;;;;;3.90;1.23;;;;;;;23.20;41.51;99000.00;10530485;28;20468;-77
2022/05/23 11:39:46;;;;;;;3.83;1.00;;;;;;;23.20;41.87;98997.28;10533482;28;20118;-75
2022/05/23 11:52:24;;;;;;;3.13;1.33;;;;;;;23.18;42.35;98999.50;10529503;28;20430;-83
2022/05/23 12:05:44;;;;;;;6.65;1.20;;;;;;;22.86;42.84;98985.63;10516660;28;20431;-75
2022/05/23 12:10:58;;;;;;;4.03;1.30;;;;;;;22.69;44.27;98958.94;10490344;28;20045;-75
2022/05/23 12:16:35;;;;;;;9.10;2.97;;;;;;;22.96;43.89;98974.75;10490800;28;20048;-74
2022/05/23 12:21:36;;;;;;;44.33;31.20;;;;;;;23.02;44.00;98985.25;10489257;28;20047;-77
2022/05/23 12:26:39;;;;;;;84.85;49.28;;;;;;;23.07;44.74;98991.75;10489627;28;20036;-76
2022/05/23 12:32:05;;;;;;;90.55;43.70;;;;;;;23.09;44.80;99003.88;10487730;28;20484;-74
2022/05/23 12:37:15;;;;;;;153.63;69.93;;;;;;;22.81;45.09;98996.50;10525934;28;20047;-74
2022/05/23 12:42:28;;;;;;;102.38;40.22;;;;;;;22.74;45.95;99013.06;10528457;28;20036;-77
2022/05/23 12:47:29;;;;;;;;;;;;;;;22.78;44.83;99012.19;10527132;28;20071;-74
2022/05/23 12:52:45;;;;;;;64.32;29.35;;;;;;;22.51;46.74;99014.53;10520561;28;19955;-75
2022/05/23 12:58:45;;;;;;;260.65;118.50;;;;;;;21.88;47.04;98934.72;10519083;28;20040;-73
2022/05/23 13:04:08;;;;;;;169.98;70.72;;;;;;;21.67;47.09;98919.69;10496535;28;20407;-76
2022/05/23 13:09:27;;;;;;;116.15;45.75;;;;;;;22.09;46.50;99015.78;10527597;28;20491;-83
2022/05/23 13:14:52;;;;;;;46.30;16.98;;;;;;;22.07;46.04;99016.03;10511975;28;20036;-75
2022/05/23 13:25:12;;;;;;;172.80;63.47;;;;;;;21.83;45.93;99005.03;10500139;28;20431;-73
2022/05/23 13:30:17;;;;;;;99.38;35.85;;;;;;;21.92;46.35;99034.22;10501107;28;20048;-74
2022/05/23 13:35:25;;;;;;;18.52;8.48;;;;;;;21.84;45.96;99032.91;10500547;28;20048;-73
2022/05/23 13:40:29;;;;;;;29.23;11.48;;;;;;;20.90;45.93;98906.28;10498751;28;20127;-76
2022/05/23 13:45:30;;;;;;;25.27;8.95;;;;;;;21.40;45.80;99015.38;10500602;28;20056;-74
2022/05/23 13:50:38;;;;;;;22.13;9.45;;;;;;;21.49;45.64;99052.66;10500486;28;20042;-77
2022/05/23 13:55:48;;;;;;;34.60;13.00;;;;;;;21.38;46.27;99043.75;10499681;28;20131;-75
2022/05/23 14:00:54;;;;;;;23.50;9.50;;;;;;;20.54;47.64;98935.13;10500306;28;20079;-74
2022/05/23 14:05:56;;;;;;;57.28;22.60;;;;;;;21.17;48.25;99061.81;10500298;28;20072;-73
2022/05/23 14:10:57;;;;;;;44.20;17.85;;;;;;;20.83;48.60;99019.13;10495704;28;20064;-72
2022/05/23 14:15:59;;;;;;;36.15;15.45;;;;;;;20.92;49.02;99059.88;10499436;28;20059;-73
2022/05/23 14:21:01;;;;;;;26.77;8.45;;;;;;;20.62;49.68;99036.34;10498668;28;20419;-72
2022/05/23 14:26:04;;;;;;;19.17;6.80;;;;;;;20.68;50.20;99073.06;10482194;28;20084;-74
2022/05/23 14:31:05;;;;;;;23.70;8.07;;;;;;;20.57;50.68;99083.00;10478632;28;20079;-74
2022/05/23 14:36:21;;;;;;;23.52;8.40;;;;;;;19.76;51.39;98978.25;10498025;28;20129;-74
2022/05/23 14:41:29;;;;;;;16.30;7.15;;;;;;;20.20;52.03;99096.56;10498119;28;20029;-74
2022/05/23 14:46:36;;;;;;;17.23;6.50;;;;;;;20.18;51.70;99121.06;10498750;28;20052;-73
2022/05/23 14:51:40;;;;;;;24.95;8.55;;;;;;;20.05;51.55;99149.31;10496011;28;20063;-79
2022/05/23 14:56:40;;;;;;;265.40;103.88;;;;;;;19.93;52.23;99135.22;10497266;28;20126;-75
2022/05/23 15:01:41;;;;;;;321.55;116.45;;;;;;;19.84;53.11;99136.75;10498222;28;20557;-74
2022/05/23 15:06:42;;;;;;;62.92;23.00;;;;;;;18.61;54.16;98957.97;10496743;28;20032;-74
2022/05/23 15:11:44;;;;;;;15.55;6.90;;;;;;;18.73;54.87;99008.97;10497318;28;20048;-76
2022/05/23 15:16:46;;;;;;;8.85;3.33;;;;;;;18.75;55.60;99047.16;10497199;28;20043;-75
2022/05/23 15:21:48;;;;;;;6.72;1.95;;;;;;;19.33;57.11;99174.00;10497683;28;20032;-74
2022/05/23 15:26:50;;;;;;;4.85;2.20;;;;;;;19.20;58.22;99187.84;10496671;28;20048;-74
2022/05/23 15:31:51;;;;;;;11.45;3.97;;;;;;;18.19;60.54;99079.56;10495835;28;20530;-73
2022/05/23 15:36:52;;;;;;;9.32;5.90;;;;;;;18.67;63.12;99206.31;10496125;28;20492;-73
2022/05/23 15:41:55;;;;;;;14.05;9.23;;;;;;;17.58;65.64;99081.31;10496372;28;20090;-73
2022/05/23 15:46:58;;;;;;;9.68;5.20;;;;;;;18.25;68.09;99215.66;10496592;28;20072;-73
2022/05/23 15:52:01;;;;;;;5.03;3.45;;;;;;;18.07;68.36;99215.91;10496066;28;20075;-72
2022/05/23 15:57:04;;;;;;;8.27;4.63;;;;;;;17.99;70.14;99224.38;10495456;28;20110;-71
2022/05/23 16:02:08;;;;;;;14.35;7.93;;;;;;;17.89;73.02;99226.88;10484287;28;20048;-71
2022/05/23 16:07:09;;;;;;;;;;;;;;;17.95;72.73;99236.69;10495139;28;20559;-69
2022/05/23 16:12:11;;;;;;;7.45;3.65;;;;;;;17.69;73.11;99244.25;10495549;28;19924;-69
2022/05/23 16:17:12;;;;;;;5.90;3.05;;;;;;;17.43;75.17;99216.09;10495496;28;20036;-69
2022/05/23 16:22:18;;;;;;;9.55;3.05;;;;;;;17.17;78.56;99220.19;10495013;28;20068;-69
2022/05/23 16:27:19;;;;;;;6.78;2.95;;;;;;;17.26;78.05;99239.38;10488379;28;20458;-69
2022/05/23 16:37:39;;;;;;;11.38;3.38;;;;;;;17.04;80.79;99236.56;10495016;28;20052;-70
2022/05/23 16:42:40;;;;;;;6.40;3.10;;;;;;;17.13;82.56;99253.09;10494943;28;20442;-69
2022/05/23 16:47:41;;;;;;;11.55;3.88;;;;;;;16.68;84.04;99184.81;10480097;28;20135;-69
2022/05/23 16:52:41;;;;;;;14.10;4.85;;;;;;;16.87;86.16;99231.94;10491432;28;20052;-69
2022/05/23 16:57:42;;;;;;;9.40;4.90;;;;;;;16.77;87.31;99231.69;10495192;28;20036;-70
2022/05/23 17:02:43;;;;;;;7.68;5.00;;;;;;;16.87;87.83;99261.44;10500602;28;20056;-70
2022/05/23 17:07:44;;;;;;;6.25;4.68;;;;;;;16.76;88.63;99281.03;10496785;28;20043;-70
2022/05/23 17:12:45;;;;;;;7.38;4.85;;;;;;;16.10;89.38;99177.66;10486489;28;20052;-70
2022/05/23 17:17:47;;;;;;;7.85;4.30;;;;;;;16.71;89.91;99298.84;10476061;28;20055;-70
2022/05/23 17:22:48;;;;;;;7.60;4.28;;;;;;;16.47;91.19;99253.25;10486406;28;20044;-70
2022/05/23 17:27:51;;;;;;;6.80;3.92;;;;;;;16.74;91.26;99304.56;10489252;28;20111;-69
2022/05/23 17:32:53;;;;;;;5.40;3.60;;;;;;;16.72;91.78;99303.97;10501079;28;20060;-69
2022/05/23 17:37:54;;;;;;;7.10;3.90;;;;;;;16.66;91.51;99302.22;10500496;28;20045;-69
2022/05/23 17:42:56;;;;;;;7.15;3.58;;;;;;;16.43;92.01;99276.22;10501083;28;20044;-69
2022/05/23 17:47:56;;;;;;;4.82;3.42;;;;;;;16.63;92.12;99334.84;10501404;28;20483;-69
2022/05/23 17:52:57;;;;;;;4.88;3.35;;;;;;;16.59;92.26;99326.47;10482166;28;20072;-70
2022/05/23 17:57:58;;;;;;;3.90;3.25;;;;;;;15.11;92.37;99092.47;10463760;28;20082;-69
2022/05/23 18:03:00;;;;;;;6.80;3.80;;;;;;;15.53;93.42;99189.63;10499784;28;20067;-70
2022/05/23 18:08:02;;;;;;;5.90;2.65;;;;;;;16.09;92.53;99309.94;10500129;28;20522;-68
2022/05/23 18:13:04;;;;;;;8.18;3.15;;;;;;;16.24;92.99;99360.44;10498976;28;20052;-68
2022/05/23 18:23:25;;;;;;;6.57;3.03;;;;;;;15.53;93.13;99288.66;10499152;28;20085;-69
2022/05/23 18:28:27;;;;;;;6.72;3.03;;;;;;;16.01;93.93;99367.34;10498343;28;20040;-69
2022/05/23 18:33:28;;;;;;;7.63;3.40;;;;;;;15.64;94.63;99329.06;10498185;28;20044;-69
2022/05/23 18:38:29;;;;;;;7.80;3.15;;;;;;;15.89;95.68;99366.50;10478493;28;20536;-69
2022/05/23 18:43:30;;;;;;;4.47;3.03;;;;;;;15.91;95.66;99389.34;10490835;28;20052;-69
2022/05/23 18:53:50;;;;;;;8.82;3.60;;;;;;;15.79;96.41;99377.72;10497170;28;20047;-68
2022/05/23 18:58:51;;;;;;;8.57;3.60;;;;;;;15.84;96.80;99380.56;10497333;28;20050;-71
2022/05/23 19:03:52;;;;;;;7.03;4.20;;;;;;;15.62;97.42;99352.59;10497922;28;20058;-68
2022/05/23 19:08:53;;;;;;;6.18;3.72;;;;;;;14.96;98.65;99239.97;10479492;28;20057;-68
2022/05/23 19:13:54;;;;;;;10.25;4.03;;;;;;;15.89;99.26;99396.78;10495789;28;20038;-68
2022/05/23 19:18:55;;;;;;;5.45;3.80;;;;;;;15.87;99.67;99393.50;10497615;28;20127;-68
2022/05/23 19:23:56;;;;;;;6.70;4.07;;;;;;;15.77;99.71;99390.53;10496298;28;20040;-70
2022/05/23 19:28:57;;;;;;;4.78;3.60;;;;;;;15.56;99.54;99356.19;10497063;28;20055;-68
2022/05/23 19:33:58;;;;;;;8.35;4.50;;;;;;;15.00;99.78;99275.91;10496949;28;20571;-68
2022/05/23 19:38:59;;;;;;;4.93;4.10;;;;;;;15.62;100.00;99382.06;10494831;28;20044;-68
2022/05/23 19:44:00;;;;;;;5.55;4.13;;;;;;;15.41;100.00;99376.09;10495642;28;20067;-69
2022/05/23 19:49:01;;;;;;;6.63;4.20;;;;;;;14.81;100.00;99287.66;10496282;28;20047;-69
2022/05/23 19:54:02;;;;;;;7.22;3.97;;;;;;;15.38;100.00;99384.59;10494160;28;20062;-70
2022/05/23 19:59:06;;;;;;;6.82;3.90;;;;;;;15.20;100.00;99389.91;10495312;28;20036;-68
2022/05/23 20:09:26;;;;;;;5.18;3.10;;;;;;;14.60;100.00;99326.31;10496248;28;20041;-68
2022/05/23 20:15:21;;;;;;;5.25;3.45;;;;;;;14.14;100.00;99266.81;10495496;28;20051;-69
2022/05/23 20:19:48;;;;;;;4.30;3.05;;;;;;;14.20;100.00;99291.03;10462121;28;20041;-68
2022/05/23 20:24:49;;;;;;;8.07;3.85;;;;;;;14.55;100.00;99383.06;10457633;28;20489;-68
2022/05/23 20:29:50;;;;;;;8.63;3.78;;;;;;;14.71;100.00;99421.81;10462857;28;20045;-68
2022/05/23 20:34:51;;;;;;;4.93;3.92;;;;;;;13.89;100.00;99304.19;10461970;28;20045;-67
2022/05/23 20:39:53;;;;;;;5.88;4.65;;;;;;;14.66;100.00;99424.34;10461362;28;20496;-68
2022/05/23 20:44:54;;;;;;;5.60;4.03;;;;;;;14.17;100.00;99348.38;10460133;28;20037;-68
2022/05/23 20:49:54;;;;;;;6.22;5.25;;;;;;;14.69;100.00;99425.72;10461537;28;20041;-68
2022/05/23 20:54:55;;;;;;;7.00;5.53;;;;;;;14.68;100.00;99430.25;10461076;28;20037;-68
2022/05/23 20:59:56;;;;;;;7.10;5.13;;;;;;;14.48;100.00;99387.63;10460448;28;20497;-68
2022/05/23 21:04:57;;;;;;;6.25;5.00;;;;;;;14.61;100.00;99424.97;10459772;28;20053;-68
2022/05/23 21:09:58;;;;;;;9.57;6.20;;;;;;;14.66;100.00;99427.00;10460123;28;20094;-68
2022/05/23 21:14:59;;;;;;;7.35;5.57;;;;;;;14.22;100.00;99358.41;10459950;28;20055;-67
2022/05/23 21:20:00;;;;;;;8.38;6.20;;;;;;;14.63;100.00;99429.25;10460582;28;20047;-68
2022/05/23 21:25:00;;;;;;;9.27;7.28;;;;;;;14.39;100.00;99384.41;10460718;28;20037;-68
2022/05/23 21:30:01;;;;;;;13.85;6.65;;;;;;;14.67;100.00;99428.63;10459745;28;20044;-67
2022/05/23 21:35:04;;;;;;;6.68;5.97;;;;;;;14.64;100.00;99426.41;10458606;28;20041;-68
2022/05/23 21:50:44;;;;;;;8.13;6.30;;;;;;;14.47;100.00;99415.38;10458662;28;20043;-68
2022/05/23 21:55:47;;;;;;;7.25;6.50;;;;;;;13.84;100.00;99314.69;10458931;28;20041;-68
2022/05/23 22:06:14;;;;;;;7.07;6.38;;;;;;;13.82;100.00;99318.59;10458719;28;20048;-68
2022/05/23 22:11:16;;;;;;;6.53;5.93;;;;;;;14.56;100.00;99440.00;10458435;28;20044;-69
2022/05/23 22:16:18;;;;;;;8.90;7.05;;;;;;;14.06;100.00;99359.72;10457654;28;20566;-68
2022/05/23 22:21:20;;;;;;;9.45;6.82;;;;;;;14.45;100.00;99424.63;10457942;28;20458;-67
2022/05/23 22:26:21;;;;;;;7.80;6.65;;;;;;;14.59;100.00;99437.72;10457039;28;20075;-68
2022/05/23 22:31:22;;;;;;;7.95;6.45;;;;;;;14.73;100.00;99456.34;10457739;28;20062;-68
2022/05/23 22:36:23;;;;;;;7.35;6.28;;;;;;;13.96;100.00;99330.84;10456925;28;20040;-67
2022/05/23 22:41:23;;;;;;;6.80;6.10;;;;;;;14.72;100.00;99457.41;10458166;28;20135;-68
2022/05/23 22:46:24;;;;;;;6.82;5.80;;;;;;;14.64;100.00;99453.13;10455655;28;20496;-68
2022/05/23 22:51:25;;;;;;;7.05;6.32;;;;;;;14.56;100.00;99475.56;10456668;28;20492;-68
2022/05/23 22:56:28;;;;;;;6.68;5.93;;;;;;;14.31;100.00;99447.94;10457146;28;20082;-68
2022/05/23 23:01:29;;;;;;;6.30;5.60;;;;;;;14.50;100.00;99473.72;10456372;28;20141;-68
2022/05/23 23:06:30;;;;;;;6.18;5.57;;;;;;;13.66;100.00;99328.72;10455626;28;20131;-68
2022/05/23 23:11:30;;;;;;;7.00;6.30;;;;;;;14.55;100.00;99473.13;10455888;28;20044;-68
2022/05/23 23:16:31;;;;;;;6.35;5.75;;;;;;;14.42;100.00;99455.28;10456183;28;20040;-69
2022/05/23 23:21:32;;;;;;;7.13;6.00;;;;;;;14.37;100.00;99436.41;10455204;28;20040;-68
2022/05/23 23:26:33;;;;;;;5.68;5.07;;;;;;;14.36;100.00;99427.56;10455420;28;20041;-68
2022/05/23 23:31:34;;;;;;;6.80;5.97;;;;;;;14.26;100.00;99421.06;10455109;28;20090;-68
2022/05/23 23:41:54;;;;;;;7.25;5.88;;;;;;;14.57;100.00;99501.28;10455102;28;20040;-68
2022/05/23 23:46:55;;;;;;;6.75;6.13;;;;;;;14.58;100.00;99491.41;10455687;28;20491;-68
2022/05/23 23:51:56;;;;;;;6.72;6.13;;;;;;;14.46;100.00;99471.72;10453950;28;20041;-68
2022/05/23 23:56:56;;;;;;;6.95;6.25;;;;;;;13.84;100.00;99375.25;10454463;28;20041;-68
